createdAt,value
2022-09-02T00:01:22.595Z,102197.44
2022-09-02T00:03:49.553Z,102203.13
2022-09-02T00:06:17.401Z,102200.34
2022-09-02T00:08:53.111Z,102201.56
2022-09-02T00:11:23.747Z,102202.09
2022-09-02T00:13:51.754Z,102202.69
2022-09-02T00:16:18.876Z,102200.72
2022-09-02T00:18:48.370Z,102190.94
2022-09-02T00:21:16.129Z,102203.16
2022-09-02T00:23:44.356Z,102192.09
2022-09-02T00:26:12.510Z,102198.31
2022-09-02T00:28:40.081Z,102197.91
2022-09-02T00:31:14.242Z,102197.16
2022-09-02T00:33:41.033Z,102185.03
2022-09-02T00:36:07.996Z,102190.78
2022-09-02T00:38:35.837Z,102206.09
2022-09-02T00:41:05.949Z,102206.88
2022-09-02T00:43:49.152Z,102216.00
2022-09-02T00:46:18.510Z,102217.00
2022-09-02T00:48:53.571Z,102215.72
2022-09-02T00:51:20.511Z,102220.44
2022-09-02T00:53:49.916Z,102217.13
2022-09-02T00:56:25.468Z,102210.47
2022-09-02T00:58:52.769Z,102210.41
2022-09-02T01:01:22.633Z,102210.66
2022-09-02T01:03:50.549Z,102202.22
2022-09-02T01:06:25.182Z,102205.81
2022-09-02T01:08:59.525Z,102201.00
2022-09-02T01:11:39.091Z,102196.19
2022-09-02T01:14:07.428Z,102192.50
2022-09-02T01:16:42.157Z,102193.84
2022-09-02T01:19:20.244Z,102199.50
2022-09-02T01:21:57.791Z,102193.75
2022-09-02T01:24:29.883Z,102191.50
2022-09-02T01:26:59.422Z,102197.38
2022-09-02T01:29:27.644Z,102188.88
2022-09-02T01:31:54.342Z,102190.66
2022-09-02T01:34:21.099Z,102182.38
2022-09-02T01:36:47.893Z,102185.13
2022-09-02T01:39:14.661Z,102185.88
2022-09-02T01:41:41.361Z,102181.50
2022-09-02T01:44:08.534Z,102182.38
2022-09-02T01:46:35.378Z,102179.56
2022-09-02T01:49:02.193Z,102181.88
2022-09-02T01:51:28.891Z,102180.81
2022-09-02T01:53:55.534Z,102182.34
2022-09-02T01:56:22.118Z,102183.19
2022-09-02T01:58:49.114Z,102184.31
2022-09-02T02:01:15.823Z,102181.25
2022-09-02T02:03:42.861Z,102180.28
2022-09-02T02:06:12.660Z,102183.34
2022-09-02T02:08:40.107Z,102178.81
2022-09-02T02:11:06.854Z,102185.56
2022-09-02T02:13:33.985Z,102175.59
2022-09-02T02:16:00.910Z,102168.47
2022-09-02T02:18:27.559Z,102167.16
2022-09-02T02:20:54.148Z,102170.97
2022-09-02T02:23:20.926Z,102175.53
2022-09-02T02:25:47.542Z,102172.47
2022-09-02T02:28:14.683Z,102171.97
2022-09-02T02:30:41.354Z,102173.94
2022-09-02T02:33:07.946Z,102173.94
2022-09-02T02:35:34.899Z,102171.75
2022-09-02T02:38:03.768Z,102176.19
2022-09-02T02:40:31.420Z,102179.91
2022-09-02T02:42:58.135Z,102173.41
2022-09-02T02:45:25.667Z,102164.50
2022-09-02T02:47:53.397Z,102160.59
2022-09-02T02:50:21.883Z,102165.25
2022-09-02T02:52:49.068Z,102168.56
2022-09-02T02:55:16.729Z,102163.38
2022-09-02T02:57:45.242Z,102165.53
2022-09-02T03:00:21.879Z,102164.13
2022-09-02T03:02:49.858Z,102160.78
2022-09-02T03:05:16.755Z,102168.38
2022-09-02T03:07:43.372Z,102162.22
2022-09-02T03:10:11.624Z,102165.34
2022-09-02T03:12:39.737Z,102157.78
2022-09-02T03:15:08.842Z,102164.25
2022-09-02T03:17:35.617Z,102167.59
2022-09-02T03:20:02.463Z,102159.03
2022-09-02T03:22:29.529Z,102161.25
2022-09-02T03:24:56.428Z,102164.19
2022-09-02T03:27:23.600Z,102163.81
2022-09-02T03:29:50.203Z,102165.38
2022-09-02T03:32:16.802Z,102161.19
2022-09-02T03:34:43.635Z,102168.81
2022-09-02T03:37:10.509Z,102173.22
2022-09-02T03:39:39.122Z,102177.53
2022-09-02T03:42:06.017Z,102178.25
2022-09-02T03:44:34.354Z,102173.41
2022-09-02T03:47:01.122Z,102182.94
2022-09-02T03:49:28.330Z,102177.97
2022-09-02T03:51:54.969Z,102181.44
2022-09-02T03:54:21.712Z,102178.81
2022-09-02T03:56:48.756Z,102178.53
2022-09-02T03:59:15.473Z,102183.31
2022-09-02T04:01:42.173Z,102184.44
2022-09-02T04:04:09.392Z,102186.06
2022-09-02T04:06:36.465Z,102187.34
2022-09-02T04:09:03.838Z,102185.91
2022-09-02T04:11:30.960Z,102189.22
2022-09-02T04:13:58.760Z,102194.50
2022-09-02T04:16:29.056Z,102188.34
2022-09-02T04:18:57.701Z,102195.75
2022-09-02T04:21:25.716Z,102197.56
2022-09-02T04:23:52.650Z,102192.97
2022-09-02T04:26:20.497Z,102195.91
2022-09-02T04:28:48.455Z,102192.47
2022-09-02T04:31:18.679Z,102196.59
2022-09-02T04:33:45.745Z,102197.59
2022-09-02T04:36:15.944Z,102195.75
2022-09-02T04:38:42.558Z,102194.84
2022-09-02T04:41:16.105Z,102193.34
2022-09-02T04:43:42.934Z,102195.91
2022-09-02T04:46:12.499Z,102191.28
2022-09-02T04:48:39.876Z,102193.75
2022-09-02T04:51:09.889Z,102203.31
2022-09-02T04:53:36.614Z,102195.94
2022-09-02T04:56:05.151Z,102191.50
2022-09-02T04:58:31.740Z,102197.13
2022-09-02T05:00:58.323Z,102190.94
2022-09-02T05:03:25.161Z,102196.44
2022-09-02T05:06:02.253Z,102192.78
2022-09-02T05:08:28.882Z,102189.28
2022-09-02T05:10:55.565Z,102190.25
2022-09-02T05:13:23.860Z,102192.22
2022-09-02T05:15:50.686Z,102189.09
2022-09-02T05:18:17.278Z,102195.91
2022-09-02T05:20:43.862Z,102189.38
2022-09-02T05:23:12.097Z,102191.59
2022-09-02T05:25:40.080Z,102195.97
2022-09-02T05:28:10.976Z,102190.97
2022-09-02T05:30:40.064Z,102182.69
2022-09-02T05:33:07.066Z,102192.72
2022-09-02T05:35:41.076Z,102194.97
2022-09-02T05:38:12.928Z,102200.69
2022-09-02T05:40:39.771Z,102183.00
2022-09-02T05:43:07.037Z,102196.06
2022-09-02T05:45:34.445Z,102195.91
2022-09-02T05:48:20.983Z,102200.53
2022-09-02T05:50:50.149Z,102190.38
2022-09-02T05:53:16.891Z,102194.13
2022-09-02T05:55:43.815Z,102195.53
2022-09-02T05:58:10.419Z,102193.78
2022-09-02T06:00:38.280Z,102189.56
2022-09-02T06:03:04.961Z,102188.97
2022-09-02T06:05:32.047Z,102195.25
2022-09-02T06:07:58.625Z,102195.75
2022-09-02T06:10:25.221Z,102197.06
2022-09-02T06:12:51.847Z,102191.56
2022-09-02T06:15:18.567Z,102206.91
2022-09-02T06:17:45.178Z,102201.44
2022-09-02T06:20:12.009Z,102204.84
2022-09-02T06:22:38.697Z,102199.41
2022-09-02T06:25:05.888Z,102203.56
2022-09-02T06:27:33.615Z,102198.00
2022-09-02T06:30:00.175Z,102200.66
2022-09-02T06:32:26.826Z,102206.72
2022-09-02T06:34:53.379Z,102199.72
2022-09-02T06:37:19.940Z,102209.25
2022-09-02T06:39:48.354Z,102206.72
2022-09-02T06:42:15.120Z,102212.19
2022-09-02T06:44:42.184Z,102210.19
2022-09-02T06:47:08.777Z,102209.63
2022-09-02T06:49:35.375Z,102207.25
2022-09-02T06:52:02.147Z,102205.97
2022-09-02T06:54:28.758Z,102204.78
2022-09-02T06:56:55.370Z,102207.28
2022-09-02T06:59:22.667Z,102200.06
2022-09-02T07:01:49.771Z,102205.16
2022-09-02T07:04:36.352Z,102206.72
2022-09-02T07:07:05.435Z,102214.63
2022-09-02T07:09:32.017Z,102210.31
2022-09-02T07:12:05.303Z,102203.31
2022-09-02T07:14:37.530Z,102208.47
2022-09-02T07:17:04.357Z,102203.97
2022-09-02T07:19:31.294Z,102213.28
2022-09-02T07:21:57.890Z,102211.25
2022-09-02T07:24:24.525Z,102210.88
2022-09-02T07:26:55.316Z,102214.22
2022-09-02T07:29:22.905Z,102217.50
2022-09-02T07:31:50.070Z,102223.31
2022-09-02T07:34:17.939Z,102221.69
2022-09-02T07:36:45.931Z,102221.38
2022-09-02T07:39:14.064Z,102224.78
2022-09-02T07:41:42.471Z,102227.38
2022-09-02T07:44:09.113Z,102224.59
2022-09-02T07:46:36.729Z,102225.81
2022-09-02T07:49:09.234Z,102221.75
2022-09-02T07:51:38.402Z,102222.88
2022-09-02T07:54:06.216Z,102227.84
2022-09-02T07:56:33.202Z,102230.22
2022-09-02T07:58:59.944Z,102232.63
2022-09-02T08:01:27.294Z,102225.63
2022-09-02T08:03:54.084Z,102231.28
2022-09-02T08:06:33.644Z,102224.38
2022-09-02T08:09:05.015Z,102230.06
2022-09-02T08:11:32.857Z,102235.41
2022-09-02T08:14:00.739Z,102231.47
2022-09-02T08:16:28.269Z,102227.59
2022-09-02T08:18:55.450Z,102230.06
2022-09-02T08:21:22.007Z,102223.50
2022-09-02T08:23:50.613Z,102229.00
2022-09-02T08:26:18.555Z,102228.66
2022-09-02T08:28:45.433Z,102224.47
2022-09-02T08:31:12.090Z,102230.22
2022-09-02T08:33:38.751Z,102223.28
2022-09-02T08:36:08.523Z,102229.53
2022-09-02T08:38:36.784Z,102224.78
2022-09-02T08:41:13.855Z,102225.81
2022-09-02T08:43:43.357Z,102219.16
2022-09-02T08:46:15.269Z,102222.03
2022-09-02T08:48:49.472Z,102224.38
2022-09-02T08:51:24.089Z,102225.63
2022-09-02T08:54:00.536Z,102226.75
2022-09-02T08:56:28.334Z,102229.78
2022-09-02T08:58:57.987Z,102226.16
2022-09-02T09:01:39.215Z,102229.47
2022-09-02T09:04:24.164Z,102236.38
2022-09-02T09:07:06.020Z,102233.22
2022-09-02T09:10:00.021Z,102242.25
2022-09-02T09:12:37.968Z,102238.22
2022-09-02T09:15:35.909Z,102235.53
2022-09-02T09:18:07.660Z,102230.84
2022-09-02T09:20:44.828Z,102236.00
2022-09-02T09:23:28.420Z,102224.38
2022-09-02T09:26:05.964Z,102230.53
2022-09-02T09:28:41.051Z,102231.28
2022-09-02T09:31:29.741Z,102235.13
2022-09-02T09:34:07.993Z,102231.94
2022-09-02T09:36:40.437Z,102234.88
2022-09-02T09:39:24.556Z,102238.38
2022-09-02T09:41:54.063Z,102225.31
2022-09-02T09:44:45.125Z,102231.38
2022-09-02T09:47:19.727Z,102234.66
2022-09-02T09:49:51.420Z,102230.13
2022-09-02T09:52:25.244Z,102230.13
2022-09-02T09:55:12.900Z,102229.28
2022-09-02T09:57:41.924Z,102227.94
2022-09-02T10:00:25.756Z,102235.50
2022-09-02T10:02:56.647Z,102231.72
2022-09-02T10:05:25.920Z,102229.75
2022-09-02T10:08:03.945Z,102229.13
2022-09-02T10:10:37.094Z,102232.41
2022-09-02T10:13:24.897Z,102220.84
2022-09-02T10:16:19.147Z,102229.13
2022-09-02T10:18:56.649Z,102238.34
2022-09-02T10:21:50.088Z,102231.81
2022-09-02T10:24:39.884Z,102231.50
2022-09-02T10:27:15.202Z,102230.59
2022-09-02T10:29:49.128Z,102231.59
2022-09-02T10:32:27.306Z,102231.72
2022-09-02T10:35:17.616Z,102232.53
2022-09-02T10:37:44.239Z,102232.53
2022-09-02T10:40:20.145Z,102233.88
2022-09-02T10:43:06.419Z,102229.13
2022-09-02T10:45:45.290Z,102219.13
2022-09-02T10:48:35.435Z,102227.59
2022-09-02T10:51:10.850Z,102239.78
2022-09-02T10:53:59.796Z,102238.97
2022-09-02T10:56:33.119Z,102237.41
2022-09-02T10:59:08.080Z,102238.75
2022-09-02T11:01:55.160Z,102231.84
2022-09-02T11:04:43.259Z,102233.72
2022-09-02T11:07:17.183Z,102244.78
2022-09-02T11:09:52.993Z,102236.59
2022-09-02T11:12:41.931Z,102231.94
2022-09-02T11:15:44.482Z,102230.63
2022-09-02T11:18:31.683Z,102239.72
2022-09-02T11:21:18.665Z,102224.09
2022-09-02T11:23:52.427Z,102228.88
2022-09-02T11:26:30.336Z,102228.53
2022-09-02T11:29:15.167Z,102228.84
2022-09-02T11:31:50.837Z,102220.16
2022-09-02T11:34:26.170Z,102225.00
2022-09-02T11:36:53.054Z,102226.66
2022-09-02T11:39:56.309Z,102229.03
2022-09-02T11:42:38.254Z,102225.22
2022-09-02T11:45:47.688Z,102230.50
2022-09-02T11:48:24.128Z,102227.47
2022-09-02T11:51:10.690Z,102230.81
2022-09-02T11:53:42.247Z,102237.63
2022-09-02T11:56:16.787Z,102232.44
2022-09-02T11:58:45.938Z,102239.78
2022-09-02T12:01:15.334Z,102234.19
2022-09-02T12:04:58.143Z,102227.03
2022-09-02T12:07:26.452Z,102206.53
2022-09-02T12:09:57.251Z,102220.81
2022-09-02T12:12:39.010Z,102219.22
2022-09-02T12:15:06.088Z,102225.16
2022-09-02T12:17:39.572Z,102225.47
2022-09-02T12:20:09.759Z,102219.59
2022-09-02T12:22:40.661Z,102221.97
2022-09-02T12:25:26.763Z,102211.03
2022-09-02T12:28:19.081Z,102210.09
2022-09-02T12:31:03.138Z,102212.00
2022-09-02T12:33:33.567Z,102202.63
2022-09-02T12:36:01.123Z,102203.63
2022-09-02T12:38:33.006Z,102209.53
2022-09-02T12:41:13.446Z,102204.13
2022-09-02T12:43:44.690Z,102198.69
2022-09-02T12:46:42.340Z,102205.50
2022-09-02T12:49:33.728Z,102209.84
2022-09-02T12:52:08.547Z,102205.22
2022-09-02T12:54:39.776Z,102192.47
2022-09-02T12:57:08.071Z,102197.88
2022-09-02T12:59:38.214Z,102193.28
2022-09-02T13:02:32.072Z,102196.28
2022-09-02T13:05:24.979Z,102188.75
2022-09-02T13:08:06.523Z,102196.19
2022-09-02T13:10:41.514Z,102192.78
2022-09-02T13:13:26.779Z,102199.75
2022-09-02T13:16:21.896Z,102191.00
2022-09-02T13:19:07.330Z,102197.00
2022-09-02T13:22:01.635Z,102194.56
2022-09-02T13:24:47.047Z,102206.84
2022-09-02T13:27:35.628Z,102205.31
2022-09-02T13:30:14.311Z,102202.09
2022-09-02T13:32:41.819Z,102194.78
2022-09-02T13:35:24.070Z,102205.66
2022-09-02T13:38:02.778Z,102214.28
2022-09-02T13:40:35.747Z,102205.19
2022-09-02T13:43:16.200Z,102209.28
2022-09-02T13:45:44.030Z,102199.97
2022-09-02T13:48:11.799Z,102194.34
2022-09-02T13:50:43.667Z,102202.81
2022-09-02T13:53:54.099Z,102193.47
2022-09-02T13:56:14.430Z,102202.91
2022-09-02T13:58:52.923Z,102193.34
2022-09-02T14:01:27.734Z,102191.97
2022-09-02T14:03:58.080Z,102194.41
2022-09-02T14:06:29.896Z,102192.47
2022-09-02T14:09:02.644Z,102194.22
2022-09-02T14:11:42.690Z,102184.16
2022-09-02T14:14:14.362Z,102187.03
2022-09-02T14:16:40.952Z,102189.06
2022-09-02T14:19:25.834Z,102183.09
2022-09-02T14:21:58.777Z,102181.44
2022-09-02T14:24:29.008Z,102193.84
2022-09-02T14:26:57.904Z,102188.63
2022-09-02T14:29:26.574Z,102189.25
2022-09-02T14:32:10.973Z,102185.25
2022-09-02T14:34:40.448Z,102183.13
2022-09-02T14:37:28.799Z,102187.25
2022-09-02T14:40:11.685Z,102195.63
2022-09-02T14:42:53.742Z,102192.91
2022-09-02T14:45:34.115Z,102198.56
2022-09-02T14:48:10.823Z,102196.34
2022-09-02T14:50:38.396Z,102199.88
2022-09-02T14:53:09.237Z,102194.31
2022-09-02T14:55:44.702Z,102190.31
2022-09-02T14:58:11.635Z,102204.34
2022-09-02T15:00:39.291Z,102194.66
2022-09-02T15:03:07.135Z,102190.66
2022-09-02T15:05:34.102Z,102194.19
2022-09-02T15:08:00.677Z,102191.25
2022-09-02T15:10:27.986Z,102194.56
2022-09-02T15:12:57.606Z,102188.88
2022-09-02T15:15:25.154Z,102193.16
2022-09-02T15:17:51.757Z,102183.81
2022-09-02T15:20:18.489Z,102188.88
2022-09-02T15:22:45.559Z,102189.59
2022-09-02T15:25:12.115Z,102191.13
2022-09-02T15:27:39.040Z,102192.19
2022-09-02T15:30:09.353Z,102188.31
2022-09-02T15:32:37.551Z,102190.31
2022-09-02T15:35:07.063Z,102186.75
2022-09-02T15:37:37.436Z,102189.59
2022-09-02T15:40:07.052Z,102190.44
2022-09-02T15:42:35.568Z,102182.97
2022-09-02T15:45:04.182Z,102189.47
2022-09-02T15:47:31.280Z,102185.81
2022-09-02T15:49:58.292Z,102185.22
2022-09-02T15:52:25.133Z,102184.19
2022-09-02T15:54:54.363Z,102196.19
2022-09-02T15:57:21.887Z,102196.78
2022-09-02T15:59:48.847Z,102193.16
2022-09-02T16:02:16.120Z,102194.56
2022-09-02T16:04:42.777Z,102189.25
2022-09-02T16:07:09.716Z,102189.13
2022-09-02T16:09:49.768Z,102192.91
2022-09-02T16:12:16.453Z,102200.34
2022-09-02T16:14:43.426Z,102200.44
2022-09-02T16:17:10.556Z,102198.41
2022-09-02T16:19:40.203Z,102186.03
2022-09-02T16:22:07.082Z,102193.00
2022-09-02T16:24:34.104Z,102192.88
2022-09-02T16:27:00.836Z,102197.03
2022-09-02T16:29:28.428Z,102201.25
2022-09-02T16:32:23.551Z,102196.91
2022-09-02T16:34:42.597Z,102192.78
2022-09-02T16:37:09.177Z,102190.66
2022-09-02T16:39:36.410Z,102191.94
2022-09-02T16:42:04.626Z,102190.28
2022-09-02T16:44:33.985Z,102187.09
2022-09-02T16:47:00.899Z,102190.75
2022-09-02T16:49:27.738Z,102183.91
2022-09-02T16:51:58.476Z,102183.19
2022-09-02T16:54:31.533Z,102180.84
2022-09-02T16:57:00.937Z,102182.59
2022-09-02T16:59:27.907Z,102186.22
2022-09-02T17:01:54.578Z,102181.88
2022-09-02T17:04:21.266Z,102188.81
2022-09-02T17:06:48.866Z,102193.28
2022-09-02T17:09:16.675Z,102189.06
2022-09-02T17:11:45.598Z,102190.09
2022-09-02T17:14:19.657Z,102192.59
2022-09-02T17:16:49.473Z,102188.34
2022-09-02T17:19:21.900Z,102193.75
2022-09-02T17:21:54.084Z,102192.91
2022-09-02T17:24:23.483Z,102185.28
2022-09-02T17:26:56.272Z,102186.81
2022-09-02T17:29:48.684Z,102185.28
2022-09-02T17:32:11.982Z,102183.28
2022-09-02T17:34:38.648Z,102176.44
2022-09-02T17:37:05.733Z,102182.88
2022-09-02T17:39:34.422Z,102188.44
2022-09-02T17:42:03.079Z,102185.28
2022-09-02T17:44:39.690Z,102184.91
2022-09-02T17:47:08.004Z,102184.69
2022-09-02T17:49:36.799Z,102185.63
2022-09-02T17:52:07.014Z,102192.59
2022-09-02T17:54:34.890Z,102197.63
2022-09-02T17:57:14.854Z,102191.38
2022-09-02T18:00:05.875Z,102192.47
2022-09-02T18:02:35.626Z,102193.16
2022-09-02T18:05:29.302Z,102192.47
2022-09-02T18:08:04.002Z,102194.78
2022-09-02T18:10:38.904Z,102196.53
2022-09-02T18:13:14.131Z,102197.13
2022-09-02T18:15:49.034Z,102201.25
2022-09-02T18:18:17.988Z,102199.47
2022-09-02T18:20:53.655Z,102193.56
2022-09-02T18:23:49.291Z,102198.31
2022-09-02T18:26:42.358Z,102199.91
2022-09-02T18:29:24.583Z,102206.03
2022-09-02T18:32:17.430Z,102215.03
2022-09-02T18:35:11.637Z,102213.13
2022-09-02T18:38:07.071Z,102207.94
2022-09-02T18:41:22.535Z,102220.66
2022-09-02T18:44:13.731Z,102219.91
2022-09-02T18:47:05.485Z,102220.19
2022-09-02T18:49:36.565Z,102213.53
2022-09-02T18:52:08.498Z,102213.94
2022-09-02T18:54:45.609Z,102211.81
2022-09-02T18:57:13.329Z,102219.63
2022-09-02T19:00:01.909Z,102223.44
2022-09-02T19:02:46.298Z,102223.81
2022-09-02T19:05:20.722Z,102220.19
2022-09-02T19:08:21.055Z,102215.13
2022-09-02T19:10:48.137Z,102215.59
2022-09-02T19:13:15.587Z,102224.59
2022-09-02T19:15:42.855Z,102232.16
2022-09-02T19:18:10.858Z,102220.84
2022-09-02T19:20:39.036Z,102221.84
2022-09-02T19:23:08.470Z,102225.06
2022-09-02T19:25:36.674Z,102216.66
2022-09-02T19:28:06.598Z,102225.84
2022-09-02T19:30:37.277Z,102229.78
2022-09-02T19:33:07.728Z,102227.09
2022-09-02T19:35:36.664Z,102230.59
2022-09-02T19:38:04.043Z,102229.66
2022-09-02T19:40:33.995Z,102226.63
2022-09-02T19:43:03.958Z,102213.34
2022-09-02T19:45:37.019Z,102223.25
2022-09-02T19:48:08.115Z,102224.06
2022-09-02T19:50:38.025Z,102216.13
2022-09-02T19:53:04.791Z,102219.94
2022-09-02T19:55:33.950Z,102225.97
2022-09-02T19:58:03.038Z,102222.19
2022-09-02T20:00:31.389Z,102222.03
2022-09-02T20:02:58.262Z,102231.00
2022-09-02T20:05:26.018Z,102217.16
2022-09-02T20:08:03.343Z,102221.41
2022-09-02T20:10:30.729Z,102209.16
2022-09-02T20:12:59.223Z,102219.63
2022-09-02T20:15:26.249Z,102221.72
2022-09-02T20:17:53.338Z,102220.75
2022-09-02T20:20:22.848Z,102227.38
2022-09-02T20:22:55.308Z,102230.88
2022-09-02T20:25:31.801Z,102226.63
2022-09-02T20:28:05.433Z,102231.00
2022-09-02T20:30:36.291Z,102223.66
2022-09-02T20:33:19.773Z,102227.28
2022-09-02T20:36:09.493Z,102221.56
2022-09-02T20:38:57.864Z,102219.53
2022-09-02T20:41:56.822Z,102217.47
2022-09-02T20:45:14.233Z,102221.13
2022-09-02T20:47:52.103Z,102212.81
2022-09-02T20:51:00.145Z,102219.75
2022-09-02T20:54:01.156Z,102219.75
2022-09-02T20:56:53.426Z,102221.91
2022-09-02T20:59:20.546Z,102219.72
2022-09-02T21:01:48.479Z,102222.91
2022-09-02T21:04:26.545Z,102220.75
2022-09-02T21:07:02.378Z,102226.00
2022-09-02T21:09:56.738Z,102231.31
2022-09-02T21:12:37.362Z,102227.28
2022-09-02T21:15:13.084Z,102215.81
2022-09-02T21:17:50.552Z,102216.88
2022-09-02T21:20:26.021Z,102212.38
2022-09-02T21:22:58.489Z,102208.22
2022-09-02T21:25:36.170Z,102215.56
2022-09-02T21:28:37.992Z,102220.94
2022-09-02T21:31:28.855Z,102226.47
2022-09-02T21:34:01.051Z,102224.28
2022-09-02T21:36:32.561Z,102215.69
2022-09-02T21:39:06.612Z,102219.84
2022-09-02T21:41:41.153Z,102217.25
2022-09-02T21:44:28.202Z,102219.44
2022-09-02T21:47:15.428Z,102213.53
2022-09-02T21:49:51.021Z,102216.72
2022-09-02T21:52:48.944Z,102217.34
2022-09-02T21:55:31.397Z,102218.38
2022-09-02T21:58:31.680Z,102219.00
2022-09-02T22:01:07.881Z,102222.72
2022-09-02T22:03:49.862Z,102219.59
2022-09-02T22:06:36.399Z,102221.25
2022-09-02T22:09:09.234Z,102226.22
2022-09-02T22:12:16.817Z,102220.03
2022-09-02T22:14:59.207Z,102216.91
2022-09-02T22:17:35.341Z,102219.78
2022-09-02T22:20:05.569Z,102215.88
2022-09-02T22:22:38.948Z,102219.06
2022-09-02T22:25:10.734Z,102221.81
2022-09-02T22:27:40.653Z,102215.50
2022-09-02T22:30:14.588Z,102218.47
2022-09-02T22:32:57.769Z,102221.66
2022-09-02T22:35:36.307Z,102221.66
2022-09-02T22:38:29.072Z,102209.16
2022-09-02T22:41:14.169Z,102218.16
2022-09-02T22:43:45.665Z,102217.88
2022-09-02T22:46:43.598Z,102216.84
2022-09-02T22:49:34.033Z,102216.16
2022-09-02T22:52:43.970Z,102216.16
2022-09-02T22:55:15.992Z,102215.72
2022-09-02T22:57:57.664Z,102217.25
2022-09-02T23:00:25.924Z,102217.09
2022-09-02T23:03:20.903Z,102215.00
2022-09-02T23:06:03.215Z,102216.34
2022-09-02T23:08:31.753Z,102210.47
2022-09-02T23:11:06.823Z,102209.44
2022-09-02T23:14:07.189Z,102214.00
2022-09-02T23:16:48.156Z,102214.00
2022-09-02T23:19:37.311Z,102217.13
2022-09-02T23:22:16.095Z,102216.63
2022-09-02T23:24:49.295Z,102214.75
2022-09-02T23:27:33.357Z,102220.28
2022-09-02T23:30:04.366Z,102216.75
2022-09-02T23:32:52.116Z,102216.66
2022-09-02T23:35:23.842Z,102207.47
2022-09-02T23:38:17.028Z,102208.19
2022-09-02T23:40:46.579Z,102212.94
2022-09-02T23:43:18.399Z,102209.66
2022-09-02T23:45:46.738Z,102209.88
2022-09-02T23:48:28.842Z,102209.97
2022-09-02T23:51:17.535Z,102212.38
2022-09-02T23:54:24.822Z,102217.13
2022-09-02T23:57:12.151Z,102215.66
